createdAt,value
2019-05-01T00:01:53.496Z,13.43
2019-05-01T00:04:28.459Z,10.10
2019-05-01T00:07:00.466Z,9.00
2019-05-01T00:09:31.948Z,14.47
2019-05-01T00:12:04.035Z,10.60
2019-05-01T00:14:34.999Z,12.77
2019-05-01T00:17:05.512Z,9.87
2019-05-01T00:19:36.236Z,18.10
2019-05-01T00:22:06.618Z,13.43
2019-05-01T00:24:37.119Z,10.10
2019-05-01T00:27:07.829Z,10.57
2019-05-01T00:29:38.213Z,9.17
2019-05-01T00:32:08.593Z,11.23
2019-05-01T00:34:39.392Z,11.93
2019-05-01T00:37:09.758Z,9.47
2019-05-01T00:39:40.887Z,8.10
2019-05-01T00:42:11.263Z,8.50
2019-05-01T00:44:42.029Z,10.60
2019-05-01T00:47:12.387Z,9.93
2019-05-01T00:49:43.121Z,9.10
2019-05-01T00:52:14.200Z,7.90
2019-05-01T00:54:48.565Z,13.23
2019-05-01T00:57:20.594Z,9.30
2019-05-01T01:00:01.565Z,15.27
2019-05-01T01:02:42.318Z,8.10
2019-05-01T01:05:13.442Z,11.17
2019-05-01T01:07:44.079Z,9.90
2019-05-01T01:10:14.816Z,9.20
2019-05-01T01:12:46.005Z,9.80
2019-05-01T01:15:16.551Z,12.43
2019-05-01T01:17:46.951Z,12.97
2019-05-01T01:20:18.672Z,10.23
2019-05-01T01:22:49.478Z,8.67
2019-05-01T01:25:20.163Z,13.77
2019-05-01T01:27:51.418Z,20.77
2019-05-01T01:30:21.790Z,10.87
2019-05-01T01:32:52.209Z,9.17
2019-05-01T01:35:25.486Z,13.70
2019-05-01T01:37:55.843Z,16.53
2019-05-01T01:40:26.635Z,17.77
2019-05-01T01:42:58.708Z,13.87
2019-05-01T01:45:33.918Z,23.93
2019-05-01T01:48:11.810Z,17.43
2019-05-01T01:50:43.877Z,18.70
2019-05-01T01:53:16.354Z,18.30
2019-05-01T01:55:47.131Z,16.23
2019-05-01T01:58:17.793Z,17.60
2019-05-01T02:01:08.967Z,17.33
2019-05-01T02:03:32.968Z,17.73
2019-05-01T02:06:03.316Z,16.33
2019-05-01T02:08:33.986Z,19.50
2019-05-01T02:11:04.373Z,17.70
2019-05-01T02:13:35.094Z,23.37
2019-05-01T02:16:05.902Z,18.90
2019-05-01T02:18:36.653Z,18.63
2019-05-01T02:21:07.734Z,19.20
2019-05-01T02:23:38.419Z,22.43
2019-05-01T02:26:10.806Z,19.93
2019-05-01T02:28:46.259Z,31.50
2019-05-01T02:31:27.915Z,24.00
2019-05-01T02:33:51.780Z,21.90
2019-05-01T02:36:22.430Z,22.27
2019-05-01T02:38:53.416Z,23.83
2019-05-01T02:41:25.894Z,22.97
2019-05-01T02:44:00.783Z,26.00
2019-05-01T02:46:31.280Z,27.40
2019-05-01T02:49:11.610Z,24.53
2019-05-01T02:51:41.960Z,24.70
2019-05-01T02:54:12.715Z,26.80
2019-05-01T02:56:44.953Z,25.67
2019-05-01T02:59:15.365Z,32.03
2019-05-01T03:01:47.881Z,27.23
2019-05-01T03:04:17.859Z,32.90
2019-05-01T03:06:48.327Z,30.23
2019-05-01T03:09:40.119Z,27.57
2019-05-01T03:12:10.464Z,33.40
2019-05-01T03:14:43.490Z,29.13
2019-05-01T03:17:31.760Z,47.00
2019-05-01T03:20:03.759Z,35.03
2019-05-01T03:22:42.149Z,32.03
2019-05-01T03:25:12.620Z,32.70
2019-05-01T03:27:43.170Z,33.20
2019-05-01T03:30:13.565Z,40.67
2019-05-01T03:32:44.239Z,37.23
2019-05-01T03:35:15.223Z,39.60
2019-05-01T03:37:45.844Z,36.13
2019-05-01T03:40:16.614Z,42.50
2019-05-01T03:42:46.975Z,32.30
2019-05-01T03:45:17.754Z,41.97
2019-05-01T03:47:48.113Z,36.80
2019-05-01T03:50:19.046Z,46.67
2019-05-01T03:52:50.245Z,39.20
2019-05-01T03:55:20.643Z,39.03
2019-05-01T03:57:50.996Z,45.77
2019-05-01T04:00:34.952Z,40.30
2019-05-01T04:03:19.669Z,45.20
2019-05-01T04:05:50.034Z,41.70
2019-05-01T04:08:20.820Z,51.03
2019-05-01T04:10:51.221Z,43.33
2019-05-01T04:13:21.859Z,41.50
2019-05-01T04:15:54.078Z,42.43
2019-05-01T04:18:25.149Z,41.53
2019-05-01T04:20:55.556Z,40.00
2019-05-01T04:23:25.964Z,39.17
2019-05-01T04:25:56.378Z,41.43
2019-05-01T04:28:31.909Z,45.53
2019-05-01T04:31:19.282Z,48.60
2019-05-01T04:33:53.935Z,42.87
2019-05-01T04:36:31.978Z,45.60
2019-05-01T04:39:02.335Z,48.83
2019-05-01T04:41:33.398Z,51.77
2019-05-01T04:44:03.852Z,51.20
2019-05-01T04:46:35.151Z,52.03
2019-05-01T04:49:05.491Z,54.43
2019-05-01T04:51:36.362Z,56.50
2019-05-01T04:54:06.780Z,58.63
2019-05-01T04:56:37.574Z,59.07
2019-05-01T04:59:07.956Z,52.10
2019-05-01T05:01:52.444Z,51.13
2019-05-01T05:04:24.398Z,51.67
2019-05-01T05:06:54.825Z,49.40
2019-05-01T05:09:41.924Z,57.20
2019-05-01T05:12:14.321Z,58.83
2019-05-01T05:14:58.744Z,54.97
2019-05-01T05:17:29.475Z,48.03
2019-05-01T05:19:59.849Z,50.57
2019-05-01T05:22:30.205Z,56.93
2019-05-01T05:25:01.021Z,58.03
2019-05-01T05:27:31.761Z,58.60
2019-05-01T05:30:02.512Z,54.40
2019-05-01T05:32:33.031Z,61.70
2019-05-01T05:35:04.133Z,59.20
2019-05-01T05:37:36.752Z,57.40
2019-05-01T05:40:07.914Z,52.70
2019-05-01T05:42:38.939Z,54.60
2019-05-01T05:45:09.383Z,55.07
2019-05-01T05:47:39.759Z,57.03
2019-05-01T05:50:13.433Z,57.77
2019-05-01T05:52:48.857Z,65.43
2019-05-01T05:55:31.398Z,54.43
2019-05-01T05:58:03.773Z,55.30
2019-05-01T06:00:48.999Z,60.53
2019-05-01T06:03:37.369Z,60.87
2019-05-01T06:06:10.328Z,56.87
2019-05-01T06:08:41.611Z,73.73
2019-05-01T06:11:16.852Z,66.37
2019-05-01T06:14:05.296Z,59.50
2019-05-01T06:16:46.861Z,57.80
2019-05-01T06:19:20.440Z,61.40
2019-05-01T06:21:52.952Z,70.63
2019-05-01T06:24:25.513Z,60.27
2019-05-01T06:26:55.954Z,62.10
2019-05-01T06:29:30.973Z,65.03
2019-05-01T06:32:00.075Z,69.70
2019-05-01T06:34:30.560Z,67.60
2019-05-01T06:37:01.280Z,63.57
2019-05-01T06:39:32.186Z,73.17
2019-05-01T06:42:02.569Z,66.40
2019-05-01T06:44:43.908Z,68.30
2019-05-01T06:47:27.661Z,65.77
2019-05-01T06:50:01.167Z,67.62
2019-05-01T06:52:32.588Z,65.47
2019-05-01T06:55:03.476Z,65.23
2019-05-01T06:57:38.494Z,70.30
2019-05-01T07:00:11.503Z,65.60
2019-05-01T07:02:42.871Z,69.53
2019-05-01T07:05:14.713Z,61.67
2019-05-01T07:07:48.143Z,69.40
2019-05-01T07:10:30.697Z,70.63
2019-05-01T07:12:53.144Z,78.23
2019-05-01T07:15:26.801Z,67.80
2019-05-01T07:17:56.059Z,74.27
2019-05-01T07:20:34.143Z,74.63
2019-05-01T07:23:06.235Z,72.83
2019-05-01T07:25:39.489Z,69.23
2019-05-01T07:28:09.109Z,73.97
2019-05-01T07:30:49.987Z,66.90
2019-05-01T07:33:20.493Z,79.70
2019-05-01T07:35:53.724Z,80.97
2019-05-01T07:38:23.043Z,76.50
2019-05-01T07:40:53.465Z,80.63
2019-05-01T07:43:25.780Z,79.33
2019-05-01T07:46:02.356Z,83.83
2019-05-01T07:48:41.458Z,77.60
2019-05-01T07:51:12.641Z,83.40
2019-05-01T07:53:43.605Z,75.03
2019-05-01T07:56:17.081Z,83.20
2019-05-01T07:58:47.505Z,74.67
2019-05-01T08:01:23.101Z,69.90
2019-05-01T08:03:53.891Z,71.23
2019-05-01T08:06:24.371Z,74.00
2019-05-01T08:08:55.202Z,72.63
2019-05-01T08:11:25.627Z,81.97
2019-05-01T08:14:07.094Z,75.57
2019-05-01T08:16:47.964Z,75.77
2019-05-01T08:19:20.098Z,77.30
2019-05-01T08:22:08.155Z,81.43
2019-05-01T08:24:38.689Z,78.70
2019-05-01T08:27:11.045Z,72.07
2019-05-01T08:29:45.779Z,77.90
2019-05-01T08:32:38.934Z,80.10
2019-05-01T08:35:12.523Z,74.50
2019-05-01T08:37:43.154Z,72.20
2019-05-01T08:40:16.009Z,69.73
2019-05-01T08:42:45.816Z,73.20
2019-05-01T08:45:42.523Z,72.50
2019-05-01T08:48:17.816Z,71.53
2019-05-01T08:50:48.220Z,63.90
2019-05-01T08:53:22.153Z,69.90
2019-05-01T08:55:51.550Z,69.70
2019-05-01T08:58:22.275Z,67.40
2019-05-01T09:00:52.691Z,64.90
2019-05-01T09:03:23.200Z,69.23
2019-05-01T09:05:57.546Z,61.60
2019-05-01T09:08:31.968Z,61.07
2019-05-01T09:11:02.303Z,56.97
2019-05-01T09:13:34.600Z,78.00
2019-05-01T09:16:05.567Z,63.57
2019-05-01T09:18:36.172Z,64.40
2019-05-01T09:21:06.634Z,65.92
2019-05-01T09:23:39.582Z,79.23
2019-05-01T09:26:21.258Z,64.40
2019-05-01T09:31:45.403Z,62.53
2019-05-01T09:34:19.114Z,59.50
2019-05-01T09:36:49.030Z,60.60
2019-05-01T09:39:21.559Z,56.43
2019-05-01T09:41:52.317Z,54.90
2019-05-01T09:44:22.641Z,58.83
2019-05-01T09:46:59.171Z,53.10
2019-05-01T09:49:30.128Z,55.87
2019-05-01T09:52:14.140Z,56.90
2019-05-01T09:58:27.155Z,57.17
2019-05-01T10:01:00.314Z,57.50
2019-05-01T10:03:33.197Z,60.90
2019-05-01T10:06:03.585Z,53.07
2019-05-01T10:08:34.937Z,56.23
2019-05-01T10:11:07.021Z,53.50
2019-05-01T10:13:37.420Z,54.47
2019-05-01T10:16:08.496Z,59.17
2019-05-01T10:18:39.670Z,49.57
2019-05-01T10:21:14.464Z,48.10
2019-05-01T10:23:47.152Z,46.43
2019-05-01T10:26:23.855Z,46.03
2019-05-01T10:28:53.124Z,45.53
2019-05-01T10:31:31.297Z,43.50
2019-05-01T10:34:12.200Z,49.40
2019-05-01T10:36:49.910Z,46.90
2019-05-01T10:39:20.840Z,46.07
2019-05-01T10:41:51.946Z,44.47
2019-05-01T10:44:22.635Z,43.50
2019-05-01T10:46:53.032Z,45.17
2019-05-01T10:49:23.684Z,43.87
2019-05-01T10:51:54.024Z,49.00
2019-05-01T10:54:24.400Z,44.70
2019-05-01T10:56:58.945Z,38.77
2019-05-01T10:59:27.243Z,35.60
2019-05-01T11:01:59.296Z,39.23
2019-05-01T11:04:29.646Z,41.63
2019-05-01T11:07:00.436Z,38.13
2019-05-01T11:09:31.052Z,39.67
2019-05-01T11:12:02.062Z,33.60
2019-05-01T11:14:32.889Z,37.33
2019-05-01T11:17:03.233Z,31.13
2019-05-01T11:19:53.336Z,43.90
2019-05-01T11:22:23.676Z,35.07
2019-05-01T11:24:54.479Z,34.40
2019-05-01T11:27:25.263Z,32.43
2019-05-01T11:29:55.798Z,34.40
2019-05-01T11:32:27.786Z,34.23
2019-05-01T11:34:59.948Z,37.47
2019-05-01T11:37:38.509Z,34.63
2019-05-01T11:40:20.173Z,44.00
2019-05-01T11:42:50.478Z,30.27
2019-05-01T11:45:20.991Z,31.33
2019-05-01T11:47:51.345Z,30.30
2019-05-01T11:50:22.168Z,31.90
2019-05-01T11:52:53.179Z,22.87
2019-05-01T11:55:23.559Z,29.10
2019-05-01T11:57:53.951Z,34.20
2019-05-01T12:00:25.234Z,27.07
2019-05-01T12:02:56.083Z,26.43
2019-05-01T12:05:27.160Z,25.00
2019-05-01T12:07:57.548Z,22.87
2019-05-01T12:10:47.357Z,30.73
2019-05-01T12:13:18.382Z,23.73
2019-05-01T12:15:50.398Z,28.03
2019-05-01T12:18:21.135Z,25.93
2019-05-01T12:20:51.918Z,30.23
2019-05-01T12:23:22.372Z,24.87
2019-05-01T12:25:52.936Z,23.43
2019-05-01T12:28:23.687Z,25.40
2019-05-01T12:30:54.118Z,22.60
2019-05-01T12:33:24.470Z,21.27
2019-05-01T12:35:56.507Z,21.90
2019-05-01T12:38:27.043Z,20.43
2019-05-01T12:41:17.104Z,23.80
2019-05-01T12:43:51.039Z,24.93
2019-05-01T12:46:35.203Z,27.63
2019-05-01T12:49:06.336Z,24.87
2019-05-01T12:51:37.688Z,19.47
2019-05-01T12:54:12.736Z,24.37
2019-05-01T12:56:53.951Z,24.03
2019-05-01T12:59:24.431Z,20.80
2019-05-01T13:01:55.150Z,21.93
2019-05-01T13:04:25.900Z,24.47
2019-05-01T13:06:57.431Z,21.50
2019-05-01T13:09:28.182Z,19.07
2019-05-01T13:11:58.554Z,21.82
2019-05-01T13:14:28.987Z,16.80
2019-05-01T13:16:59.599Z,28.97
2019-05-01T13:19:30.373Z,19.90
2019-05-01T13:22:01.652Z,16.00
2019-05-01T13:24:33.132Z,21.00
2019-05-01T13:27:08.699Z,15.47
2019-05-01T13:29:46.549Z,17.17
2019-05-01T13:32:21.518Z,19.60
2019-05-01T13:34:52.231Z,20.53
2019-05-01T13:37:22.599Z,19.60
2019-05-01T13:39:53.547Z,19.83
2019-05-01T13:42:23.959Z,18.53
2019-05-01T13:44:54.682Z,19.57
2019-05-01T13:47:25.127Z,18.27
2019-05-01T13:49:55.833Z,15.20
2019-05-01T13:52:26.275Z,16.97
2019-05-01T13:54:57.113Z,16.03
2019-05-01T13:57:27.830Z,23.07
2019-05-01T13:59:58.321Z,14.17
2019-05-01T14:02:28.684Z,12.57
2019-05-01T14:04:59.479Z,14.23
2019-05-01T14:07:29.884Z,14.27
2019-05-01T14:10:01.295Z,18.90
2019-05-01T14:12:32.058Z,13.37
2019-05-01T14:15:02.441Z,17.10
2019-05-01T14:17:32.812Z,12.87
2019-05-01T14:20:21.743Z,13.03
2019-05-01T14:22:53.757Z,15.90
2019-05-01T14:25:24.120Z,12.13
2019-05-01T14:27:54.478Z,14.03
2019-05-01T14:30:24.889Z,17.17
2019-05-01T14:32:56.105Z,10.63
2019-05-01T14:35:26.494Z,13.23
2019-05-01T14:37:57.260Z,8.20
2019-05-01T14:40:27.618Z,8.77
2019-05-01T14:42:58.484Z,9.53
2019-05-01T14:45:28.897Z,9.03
2019-05-01T14:47:59.312Z,9.07
2019-05-01T14:50:29.683Z,8.63
2019-05-01T14:53:00.836Z,10.57
2019-05-01T14:55:32.889Z,10.37
2019-05-01T14:58:03.524Z,16.23
2019-05-01T15:00:33.869Z,12.33
2019-05-01T15:03:04.719Z,9.30
2019-05-01T15:05:36.016Z,8.33
2019-05-01T15:08:06.774Z,7.57
2019-05-01T15:10:37.105Z,9.17
2019-05-01T15:13:09.083Z,9.37
2019-05-01T15:15:41.144Z,8.07
2019-05-01T15:18:13.131Z,8.27
2019-05-01T15:20:46.461Z,7.67
2019-05-01T15:23:15.549Z,6.17
2019-05-01T15:25:45.898Z,7.60
2019-05-01T15:28:16.321Z,6.70
2019-05-01T15:30:47.013Z,7.57
2019-05-01T15:33:17.849Z,6.20
2019-05-01T15:35:48.551Z,7.70
2019-05-01T15:38:19.276Z,6.20
2019-05-01T15:41:03.326Z,9.67
2019-05-01T15:43:38.548Z,6.70
2019-05-01T15:46:08.969Z,10.50
2019-05-01T15:48:39.678Z,7.13
2019-05-01T15:51:10.120Z,6.23
2019-05-01T15:53:41.526Z,6.27
2019-05-01T15:56:12.021Z,5.70
2019-05-01T15:58:42.466Z,9.23
2019-05-01T16:01:13.262Z,6.20
2019-05-01T16:03:43.991Z,5.90
2019-05-01T16:06:14.666Z,7.23
2019-05-01T16:08:45.237Z,4.60
2019-05-01T16:11:32.763Z,5.27
2019-05-01T16:14:03.674Z,4.50
2019-05-01T16:16:34.424Z,4.50
2019-05-01T16:19:04.766Z,4.93
2019-05-01T16:21:35.519Z,3.87
2019-05-01T16:24:05.862Z,5.80
2019-05-01T16:26:36.228Z,5.17
2019-05-01T16:29:06.579Z,3.70
2019-05-01T16:31:37.319Z,12.80
2019-05-01T16:34:07.727Z,4.57
2019-05-01T16:36:38.089Z,4.70
2019-05-01T16:39:13.113Z,4.50
2019-05-01T16:41:45.152Z,5.13
2019-05-01T16:44:15.942Z,3.50
2019-05-01T16:46:46.630Z,3.80
2019-05-01T16:49:17.011Z,3.53
2019-05-01T16:51:47.357Z,3.07
2019-05-01T16:54:17.723Z,5.93
2019-05-01T16:56:48.150Z,3.60
2019-05-01T16:59:18.904Z,3.67
2019-05-01T17:01:53.553Z,3.00
2019-05-01T17:04:34.368Z,3.50
2019-05-01T17:07:09.818Z,5.40
2019-05-01T17:09:44.916Z,4.10
2019-05-01T17:12:17.256Z,4.83
2019-05-01T17:14:48.025Z,3.93
2019-05-01T17:17:20.408Z,4.43
2019-05-01T17:19:51.011Z,4.83
2019-05-01T17:22:21.399Z,4.03
2019-05-01T17:24:51.798Z,4.23
2019-05-01T17:27:22.191Z,4.23
2019-05-01T17:29:52.908Z,5.20
2019-05-01T17:32:23.360Z,4.27
2019-05-01T17:34:54.089Z,7.23
2019-05-01T17:37:24.480Z,4.03
2019-05-01T17:39:55.211Z,3.93
2019-05-01T17:42:25.641Z,3.10
2019-05-01T17:44:59.564Z,6.40
2019-05-01T17:47:28.046Z,3.60
2019-05-01T17:49:58.442Z,3.73
2019-05-01T17:52:28.817Z,3.57
2019-05-01T17:55:01.348Z,3.77
2019-05-01T17:57:33.849Z,4.10
2019-05-01T18:00:07.970Z,5.37
2019-05-01T18:02:40.389Z,11.10
2019-05-01T18:05:18.121Z,4.60
2019-05-01T18:07:48.540Z,6.83
2019-05-01T18:10:19.253Z,3.60
2019-05-01T18:12:49.587Z,3.87
2019-05-01T18:15:20.336Z,4.93
2019-05-01T18:17:51.188Z,6.83
2019-05-01T18:20:21.963Z,4.97
2019-05-01T18:22:56.781Z,3.73
2019-05-01T18:25:33.083Z,3.93
2019-05-01T18:28:06.382Z,6.83
2019-05-01T18:30:41.489Z,4.00
2019-05-01T18:33:11.830Z,4.00
2019-05-01T18:35:44.871Z,7.80
2019-05-01T18:38:16.269Z,7.00
2019-05-01T18:40:48.573Z,4.73
2019-05-01T18:43:18.892Z,4.10
2019-05-01T18:45:51.609Z,3.30
2019-05-01T18:48:22.260Z,4.47
2019-05-01T18:50:54.642Z,3.63
2019-05-01T18:53:24.960Z,7.67
2019-05-01T18:55:55.329Z,7.33
2019-05-01T18:58:26.061Z,6.00
2019-05-01T19:00:56.820Z,10.13
2019-05-01T19:03:29.813Z,12.47
2019-05-01T19:05:59.568Z,16.47
2019-05-01T19:08:31.096Z,6.57
2019-05-01T19:11:11.854Z,5.47
2019-05-01T19:13:33.942Z,15.97
2019-05-01T19:16:08.307Z,18.03
2019-05-01T19:18:37.401Z,18.23
2019-05-01T19:21:08.329Z,13.57
2019-05-01T19:23:39.087Z,11.13
2019-05-01T19:26:09.523Z,7.00
2019-05-01T19:28:40.362Z,25.70
2019-05-01T19:31:10.757Z,18.00
2019-05-01T19:33:41.920Z,22.70
2019-05-01T19:36:12.827Z,26.53
2019-05-01T19:38:43.512Z,23.43
2019-05-01T19:41:14.456Z,13.80
2019-05-01T19:43:44.994Z,15.23
2019-05-01T19:46:15.457Z,18.60
2019-05-01T19:48:50.717Z,10.13
2019-05-01T19:51:19.196Z,52.57
2019-05-01T19:53:51.830Z,16.70
2019-05-01T19:56:22.848Z,24.93
2019-05-01T19:59:11.774Z,18.00
2019-05-01T20:01:44.589Z,29.83
2019-05-01T20:04:15.141Z,10.63
2019-05-01T20:06:46.479Z,15.43
2019-05-01T20:09:17.492Z,7.33
2019-05-01T20:11:47.833Z,13.80
2019-05-01T20:14:18.217Z,20.80
2019-05-01T20:16:50.929Z,15.30
2019-05-01T20:19:21.209Z,36.47
2019-05-01T20:21:52.542Z,15.20
2019-05-01T20:24:23.777Z,9.27
2019-05-01T20:26:54.735Z,13.53
2019-05-01T20:29:27.461Z,13.73
2019-05-01T20:31:57.920Z,18.90
2019-05-01T20:34:28.285Z,12.87
2019-05-01T20:36:58.978Z,18.17
2019-05-01T20:39:29.339Z,12.40
2019-05-01T20:42:00.550Z,13.00
2019-05-01T20:44:30.923Z,91.30
2019-05-01T20:47:02.525Z,19.80
2019-05-01T20:49:36.421Z,64.63
2019-05-01T20:52:07.758Z,52.00
2019-05-01T20:54:38.875Z,65.43
2019-05-01T20:57:20.747Z,15.27
2019-05-01T20:59:48.257Z,10.80
2019-05-01T21:02:18.398Z,8.67
2019-05-01T21:04:56.837Z,12.23
2019-05-01T21:07:31.388Z,9.00
2019-05-01T21:10:03.145Z,9.20
2019-05-01T21:12:33.881Z,14.37
2019-05-01T21:15:06.658Z,11.13
2019-05-01T21:17:37.042Z,9.63
2019-05-01T21:20:07.583Z,10.70
2019-05-01T21:22:37.950Z,12.77
2019-05-01T21:25:08.331Z,13.33
2019-05-01T21:27:38.755Z,14.23
2019-05-01T21:30:09.902Z,13.50
2019-05-01T21:32:41.011Z,20.40
2019-05-01T21:35:13.765Z,12.93
2019-05-01T21:37:44.247Z,11.13
2019-05-01T21:40:15.064Z,14.47
2019-05-01T21:42:47.377Z,10.87
2019-05-01T21:45:17.456Z,9.17
2019-05-01T21:47:47.840Z,10.20
2019-05-01T21:50:22.799Z,9.80
2019-05-01T21:52:50.824Z,8.27
2019-05-01T21:55:21.192Z,7.70
2019-05-01T21:57:51.590Z,8.40
2019-05-01T22:00:24.896Z,9.30
2019-05-01T22:02:54.451Z,8.83
2019-05-01T22:05:25.210Z,10.33
2019-05-01T22:07:58.804Z,10.90
2019-05-01T22:10:28.524Z,10.37
2019-05-01T22:12:59.455Z,14.03
2019-05-01T22:15:34.852Z,11.20
2019-05-01T22:18:16.442Z,17.63
2019-05-01T22:20:48.835Z,14.90
2019-05-01T22:23:26.785Z,11.57
2019-05-01T22:25:59.343Z,13.63
2019-05-01T22:28:31.353Z,11.87
2019-05-01T22:31:21.727Z,10.00
2019-05-01T22:33:53.727Z,14.20
2019-05-01T22:36:24.715Z,11.33
2019-05-01T22:38:55.128Z,10.77
2019-05-01T22:41:25.536Z,11.87
2019-05-01T22:43:55.907Z,13.13
2019-05-01T22:46:27.900Z,11.87
2019-05-01T22:48:58.671Z,21.37
2019-05-01T22:51:29.049Z,19.57
2019-05-01T22:53:59.860Z,14.73
2019-05-01T22:56:30.207Z,23.07
2019-05-01T22:59:00.925Z,17.57
2019-05-01T23:01:31.290Z,18.40
2019-05-01T23:04:03.333Z,18.03
2019-05-01T23:06:37.206Z,17.43
2019-05-01T23:09:06.962Z,17.80
2019-05-01T23:11:39.385Z,16.50
2019-05-01T23:14:10.224Z,22.93
2019-05-01T23:16:42.613Z,18.57
2019-05-01T23:19:13.288Z,23.90
2019-05-01T23:21:45.809Z,17.40
2019-05-01T23:24:15.959Z,20.47
2019-05-01T23:26:48.031Z,19.37
2019-05-01T23:29:18.774Z,22.17
2019-05-01T23:31:49.498Z,25.80
2019-05-01T23:34:21.180Z,18.70
2019-05-01T23:36:52.287Z,22.23
2019-05-01T23:39:22.996Z,26.87
2019-05-01T23:41:53.514Z,21.30
2019-05-01T23:44:23.824Z,23.37
2019-05-01T23:46:54.244Z,25.23
2019-05-01T23:49:24.709Z,18.57
2019-05-01T23:51:58.711Z,28.73
2019-05-01T23:54:27.459Z,28.07
2019-05-01T23:56:58.313Z,21.97
2019-05-01T23:59:28.732Z,22.40
